Perrytown, Mississippi
Current Conditions -  °F | °C
As of 3:15 AM on Thursday 27 Nov 2014 (Local Time) from KHEZ Reporting Station
Clear Clear  
Wind Chill: 44°   Ceiling: Unl
Heat Index: 46°   Visibility: 10mi
Dew Point: 32°   Wind: 6mph
Humidity: 57%   Direction: 330°NNW
Pressure: 30.34"   Gusts: NA
Location:  31.312°N, 90.9827°W
Report Text: KHEZ 270915Z AUTO 33005KT 10SM CLR 08/00 A3034 RMK AO1
Loading
Personal Weather Stations






























Interactive Weather Map New forecast layout! Learn more

10-Day Weather Forecast

Advertisements
Track Severe Weather on mobile